createdAt,value
2023-04-06T00:02:34.191Z,8.90
2023-04-06T00:05:37.449Z,8.83
2023-04-06T00:08:42.376Z,8.60
2023-04-06T00:11:45.624Z,8.73
2023-04-06T00:14:48.819Z,8.50
2023-04-06T00:17:52.064Z,8.67
2023-04-06T00:20:55.485Z,8.17
2023-04-06T00:24:00.063Z,7.80
2023-04-06T00:27:03.386Z,7.70
2023-04-06T00:30:07.521Z,9.20
2023-04-06T00:33:10.696Z,8.93
2023-04-06T00:36:14.044Z,8.20
2023-04-06T00:39:20.468Z,7.17
2023-04-06T00:42:27.226Z,7.57
2023-04-06T00:45:30.551Z,7.70
2023-04-06T00:48:33.965Z,6.60
2023-04-06T00:51:37.137Z,7.07
2023-04-06T00:54:41.639Z,7.10
2023-04-06T00:57:44.854Z,7.30
2023-04-06T01:00:48.045Z,6.70
2023-04-06T01:03:51.556Z,8.03
2023-04-06T01:06:54.659Z,7.77
2023-04-06T01:09:59.720Z,6.07
2023-04-06T01:13:02.823Z,7.60
2023-04-06T01:16:06.772Z,6.50
2023-04-06T01:19:11.528Z,9.77
2023-04-06T01:22:18.581Z,6.60
2023-04-06T01:25:22.065Z,6.97
2023-04-06T01:28:25.186Z,6.40
2023-04-06T01:31:28.767Z,6.80
2023-04-06T01:34:32.217Z,6.10
2023-04-06T01:37:36.692Z,6.27
2023-04-06T01:40:39.856Z,7.20
2023-04-06T01:43:42.992Z,7.13
2023-04-06T01:46:46.714Z,7.47
2023-04-06T01:49:49.856Z,7.97
2023-04-06T01:52:54.325Z,9.67
2023-04-06T01:55:57.428Z,9.03
2023-04-06T01:59:00.540Z,8.43
2023-04-06T02:02:03.670Z,6.43
2023-04-06T02:05:07.642Z,7.40
2023-04-06T02:08:12.150Z,6.07
2023-04-06T02:11:15.273Z,6.03
2023-04-06T02:14:18.409Z,5.63
2023-04-06T02:17:21.508Z,6.43
2023-04-06T02:20:24.608Z,6.00
2023-04-06T02:23:31.789Z,6.83
2023-04-06T02:26:34.873Z,6.70
2023-04-06T02:29:37.963Z,7.00
2023-04-06T02:32:41.257Z,6.90
2023-04-06T02:35:46.479Z,6.37
2023-04-06T02:38:50.977Z,6.10
2023-04-06T02:41:54.098Z,5.80
2023-04-06T02:44:57.226Z,6.70
2023-04-06T02:48:00.576Z,5.97
2023-04-06T02:51:03.730Z,6.37
2023-04-06T02:54:08.209Z,6.33
2023-04-06T02:57:14.079Z,5.53
2023-04-06T03:00:17.637Z,5.70
2023-04-06T03:03:20.762Z,6.63
2023-04-06T03:06:23.893Z,5.90
2023-04-06T03:09:31.360Z,5.57
2023-04-06T03:12:34.434Z,5.13
2023-04-06T03:15:37.605Z,6.07
2023-04-06T03:18:40.913Z,5.10
2023-04-06T03:21:44.524Z,5.67
2023-04-06T03:24:49.033Z,5.93
2023-04-06T03:27:52.193Z,5.77
2023-04-06T03:30:55.322Z,5.57
2023-04-06T03:33:58.509Z,5.60
2023-04-06T03:37:09.867Z,6.57
2023-04-06T03:40:17.626Z,6.57
2023-04-06T03:43:20.812Z,6.30
2023-04-06T03:46:23.987Z,5.57
2023-04-06T03:49:27.055Z,5.50
2023-04-06T03:52:30.148Z,5.83
2023-04-06T03:55:34.651Z,5.50
2023-04-06T03:58:37.785Z,5.90
2023-04-06T04:01:41.359Z,5.10
2023-04-06T04:04:44.461Z,5.77
2023-04-06T04:07:47.741Z,5.83
2023-04-06T04:10:52.171Z,6.10
2023-04-06T04:13:55.529Z,6.07
2023-04-06T04:16:58.673Z,5.97
2023-04-06T04:20:01.826Z,5.40
2023-04-06T04:23:04.998Z,6.00
2023-04-06T04:26:09.578Z,5.57
2023-04-06T04:29:12.634Z,6.10
2023-04-06T04:32:15.951Z,6.03
2023-04-06T04:35:19.182Z,4.97
2023-04-06T04:38:22.413Z,5.37
2023-04-06T04:41:26.902Z,5.27
2023-04-06T04:44:30.023Z,5.47
2023-04-06T04:47:33.220Z,5.10
2023-04-06T04:50:36.374Z,6.03
2023-04-06T04:53:39.430Z,6.40
2023-04-06T04:56:43.923Z,5.80
2023-04-06T04:59:46.949Z,5.70
2023-04-06T05:02:50.089Z,6.20
2023-04-06T05:05:53.225Z,5.90
2023-04-06T05:08:56.396Z,6.30
2023-04-06T05:12:01.017Z,6.80
2023-04-06T05:15:04.496Z,6.13
2023-04-06T05:18:08.047Z,6.47
2023-04-06T05:21:14.093Z,6.13
2023-04-06T05:24:17.562Z,7.07
2023-04-06T05:27:22.115Z,6.60
2023-04-06T05:30:25.552Z,6.73
2023-04-06T05:33:28.781Z,7.57
2023-04-06T05:36:33.244Z,7.57
2023-04-06T05:39:39.258Z,7.37
2023-04-06T05:42:45.152Z,5.80
2023-04-06T05:45:48.230Z,7.13
2023-04-06T05:48:51.299Z,8.10
2023-04-06T05:51:54.360Z,7.20
2023-04-06T05:54:57.486Z,7.33
2023-04-06T05:58:02.031Z,7.43
2023-04-06T06:01:05.958Z,7.10
2023-04-06T06:04:09.097Z,6.87
2023-04-06T06:07:12.199Z,6.83
2023-04-06T06:10:15.397Z,6.00
2023-04-06T06:13:19.914Z,5.47
2023-04-06T06:16:26.095Z,6.57
2023-04-06T06:19:29.256Z,6.37
2023-04-06T06:22:32.336Z,6.03
2023-04-06T06:25:35.614Z,5.80
2023-04-06T06:28:40.083Z,6.57
2023-04-06T06:31:43.267Z,5.53
2023-04-06T06:34:46.444Z,5.30
2023-04-06T06:37:49.608Z,5.27
2023-04-06T06:40:52.768Z,5.47
2023-04-06T06:43:57.230Z,5.67
2023-04-06T06:47:00.440Z,5.27
2023-04-06T06:50:04.191Z,5.00
2023-04-06T06:53:07.409Z,5.30
2023-04-06T06:56:10.580Z,5.53
2023-04-06T06:59:15.141Z,5.87
2023-04-06T07:02:18.528Z,5.30
2023-04-06T07:05:28.106Z,5.80
2023-04-06T07:08:32.084Z,5.73
2023-04-06T07:11:35.277Z,4.60
2023-04-06T07:14:39.821Z,5.57
2023-04-06T07:17:44.541Z,6.80
2023-04-06T07:20:48.050Z,7.13
2023-04-06T07:23:51.846Z,7.83
2023-04-06T07:26:55.039Z,6.80
2023-04-06T07:29:59.553Z,6.17
2023-04-06T07:33:02.708Z,6.70
2023-04-06T07:36:06.521Z,6.53
2023-04-06T07:39:10.352Z,6.60
2023-04-06T07:42:13.476Z,8.07
2023-04-06T07:45:18.121Z,7.30
2023-04-06T07:48:21.276Z,7.13
2023-04-06T07:51:24.394Z,7.33
2023-04-06T07:54:27.437Z,6.53
2023-04-06T07:57:30.579Z,7.20
2023-04-06T08:00:35.610Z,5.83
2023-04-06T08:03:39.101Z,6.40
2023-04-06T08:06:42.360Z,6.57
2023-04-06T08:09:45.420Z,7.37
2023-04-06T08:12:48.570Z,7.53
2023-04-06T08:15:54.497Z,7.25
2023-04-06T08:18:57.721Z,7.10
2023-04-06T08:22:00.924Z,6.80
2023-04-06T08:25:04.090Z,6.30
2023-04-06T08:28:07.498Z,7.60
2023-04-06T08:31:12.007Z,6.72
2023-04-06T08:34:15.329Z,7.13
2023-04-06T08:37:18.567Z,5.25
2023-04-06T08:40:21.886Z,5.75
2023-04-06T08:43:25.788Z,5.28
2023-04-06T08:46:32.329Z,4.72
2023-04-06T08:49:37.060Z,5.13
2023-04-06T08:52:41.191Z,5.50
2023-04-06T08:55:45.637Z,4.70
2023-04-06T08:58:49.739Z,4.68
2023-04-06T09:01:56.624Z,4.40
2023-04-06T09:05:00.248Z,3.45
2023-04-06T09:08:03.468Z,4.20
2023-04-06T09:11:07.013Z,3.80
2023-04-06T09:14:10.426Z,4.20
2023-04-06T09:17:23.887Z,3.83
2023-04-06T09:20:29.280Z,3.83
2023-04-06T09:23:32.590Z,3.33
2023-04-06T09:26:47.136Z,3.42
2023-04-06T09:29:50.382Z,4.00
2023-04-06T09:32:57.131Z,3.60
2023-04-06T09:36:00.367Z,3.22
2023-04-06T09:39:05.327Z,3.70
2023-04-06T09:42:08.413Z,4.18
2023-04-06T09:45:12.459Z,3.50
2023-04-06T09:48:17.278Z,3.80
2023-04-06T09:51:21.548Z,4.15
2023-04-06T09:54:26.682Z,4.57
2023-04-06T09:57:34.984Z,3.35
2023-04-06T10:00:46.558Z,3.63
2023-04-06T10:03:57.120Z,3.38
2023-04-06T10:07:02.031Z,3.60
2023-04-06T10:10:05.745Z,3.20
2023-04-06T10:13:10.647Z,3.50
2023-04-06T10:16:16.662Z,3.20
2023-04-06T10:19:26.807Z,3.30
2023-04-06T10:22:37.492Z,3.40
2023-04-06T10:25:40.698Z,3.03
2023-04-06T10:28:45.101Z,2.97
2023-04-06T10:31:51.428Z,3.10
2023-04-06T10:35:06.741Z,2.67
2023-04-06T10:38:09.953Z,2.87
2023-04-06T10:41:14.889Z,3.00
2023-04-06T10:44:23.163Z,3.10
2023-04-06T10:47:26.284Z,2.87
2023-04-06T10:50:32.266Z,2.77
2023-04-06T10:53:36.256Z,2.33
2023-04-06T10:56:40.859Z,3.03
2023-04-06T10:59:45.532Z,2.93
2023-04-06T11:02:49.514Z,2.00
2023-04-06T11:05:54.083Z,2.93
2023-04-06T11:08:57.822Z,2.30
2023-04-06T11:12:01.857Z,2.00
2023-04-06T11:15:06.940Z,2.40
2023-04-06T11:18:10.315Z,2.17
2023-04-06T11:21:14.990Z,2.17
2023-04-06T11:24:20.404Z,2.30
2023-04-06T11:27:23.989Z,2.17
2023-04-06T11:30:27.060Z,2.17
2023-04-06T11:33:31.427Z,3.17
2023-04-06T11:36:36.930Z,2.77
2023-04-06T11:39:41.457Z,2.10
2023-04-06T11:42:53.860Z,2.13
2023-04-06T11:46:04.088Z,2.00
2023-04-06T11:49:07.344Z,2.33
2023-04-06T11:52:20.043Z,1.90
2023-04-06T11:55:23.225Z,1.80
2023-04-06T11:58:26.287Z,1.73
2023-04-06T12:01:29.943Z,1.67
2023-04-06T12:04:33.237Z,2.00
2023-04-06T12:07:37.777Z,2.00
2023-04-06T12:10:41.338Z,2.10
2023-04-06T12:13:44.435Z,1.70
2023-04-06T12:16:50.733Z,1.80
2023-04-06T12:19:54.159Z,2.20
2023-04-06T12:22:59.782Z,2.23
2023-04-06T12:26:03.635Z,4.60
2023-04-06T12:29:08.222Z,1.67
2023-04-06T12:32:11.485Z,1.50
2023-04-06T12:35:16.745Z,2.40
2023-04-06T12:38:21.547Z,1.60
2023-04-06T12:41:25.913Z,1.90
2023-04-06T12:44:29.084Z,1.87
2023-04-06T12:47:32.307Z,2.30
2023-04-06T12:50:35.625Z,1.97
2023-04-06T12:53:40.417Z,2.43
2023-04-06T12:56:43.516Z,1.50
2023-04-06T12:59:47.407Z,1.60
2023-04-06T13:02:50.924Z,2.03
2023-04-06T13:05:54.151Z,1.77
2023-04-06T13:08:58.607Z,1.63
2023-04-06T13:12:02.105Z,1.73
2023-04-06T13:15:06.059Z,1.90
2023-04-06T13:18:09.309Z,1.97
2023-04-06T13:21:17.180Z,1.70
2023-04-06T13:24:22.929Z,1.73
2023-04-06T13:27:26.207Z,1.90
2023-04-06T13:30:29.465Z,1.57
2023-04-06T13:33:33.591Z,1.57
2023-04-06T13:36:36.746Z,1.40
2023-04-06T13:39:41.469Z,1.63
2023-04-06T13:42:46.128Z,1.80
2023-04-06T13:45:55.686Z,1.63
2023-04-06T13:49:02.025Z,1.33
2023-04-06T13:52:05.288Z,2.03
2023-04-06T13:55:10.436Z,1.43
2023-04-06T13:58:14.717Z,1.10
2023-04-06T14:01:18.023Z,1.57
2023-04-06T14:04:21.435Z,1.73
2023-04-06T14:07:24.873Z,1.60
2023-04-06T14:10:29.718Z,4.80
2023-04-06T14:13:32.866Z,1.53
2023-04-06T14:16:35.975Z,1.30
2023-04-06T14:19:39.102Z,3.13
2023-04-06T14:22:43.224Z,1.83
2023-04-06T14:25:47.882Z,1.30
2023-04-06T14:28:51.599Z,1.10
2023-04-06T14:32:00.638Z,1.80
2023-04-06T14:35:05.079Z,1.90
2023-04-06T14:38:09.029Z,1.50
2023-04-06T14:41:19.218Z,1.60
2023-04-06T14:44:23.067Z,1.70
2023-04-06T14:47:26.252Z,1.80
2023-04-06T14:50:29.389Z,1.90
2023-04-06T14:53:32.867Z,1.60
2023-04-06T14:56:39.593Z,1.43
2023-04-06T14:59:42.778Z,1.57
2023-04-06T15:02:46.141Z,1.33
2023-04-06T15:05:49.404Z,2.20
2023-04-06T15:08:52.713Z,2.40
2023-04-06T15:11:57.642Z,1.33
2023-04-06T15:15:02.006Z,1.50
2023-04-06T15:18:05.368Z,1.87
2023-04-06T15:21:08.511Z,1.77
2023-04-06T15:24:11.904Z,1.57
2023-04-06T15:27:16.400Z,1.60
2023-04-06T15:30:19.512Z,1.50
2023-04-06T15:33:23.010Z,1.23
2023-04-06T15:36:29.695Z,1.20
2023-04-06T15:39:32.967Z,1.40
2023-04-06T15:42:37.502Z,1.70
2023-04-06T15:45:41.793Z,1.60
2023-04-06T15:48:45.425Z,1.67
2023-04-06T15:51:49.074Z,2.47
2023-04-06T15:54:52.258Z,1.47
2023-04-06T15:57:56.742Z,1.57
2023-04-06T16:00:59.819Z,1.40
2023-04-06T16:04:04.334Z,1.53
2023-04-06T16:07:07.568Z,2.40
2023-04-06T16:10:11.921Z,2.00
2023-04-06T16:13:16.371Z,1.70
2023-04-06T16:16:20.785Z,1.60
2023-04-06T16:19:24.014Z,1.83
2023-04-06T16:22:28.698Z,1.60
2023-04-06T16:25:32.069Z,1.90
2023-04-06T16:28:36.694Z,1.40
2023-04-06T16:31:39.935Z,1.50
2023-04-06T16:34:43.138Z,1.60
2023-04-06T16:37:47.009Z,1.60
2023-04-06T16:40:50.139Z,1.43
2023-04-06T16:43:55.071Z,1.83
2023-04-06T16:46:58.268Z,1.70
2023-04-06T16:50:04.797Z,1.60
2023-04-06T16:53:10.650Z,1.60
2023-04-06T16:56:13.748Z,1.87
2023-04-06T16:59:18.250Z,1.97
2023-04-06T17:02:21.375Z,1.67
2023-04-06T17:05:26.874Z,1.80
2023-04-06T17:08:30.011Z,2.20
2023-04-06T17:11:43.581Z,1.70
2023-04-06T17:14:50.443Z,2.07
2023-04-06T17:17:54.234Z,1.70
2023-04-06T17:20:57.388Z,2.13
2023-04-06T17:24:00.600Z,1.90
2023-04-06T17:27:03.906Z,2.33
2023-04-06T17:30:12.752Z,2.00
2023-04-06T17:33:17.185Z,2.10
2023-04-06T17:36:21.345Z,1.80
2023-04-06T17:39:25.102Z,1.70
2023-04-06T17:42:28.256Z,1.80
2023-04-06T17:45:32.829Z,1.73
2023-04-06T17:48:36.181Z,2.83
2023-04-06T17:51:39.380Z,1.80
2023-04-06T17:54:42.594Z,2.10
2023-04-06T17:57:46.820Z,2.50
2023-04-06T18:00:51.341Z,2.63
2023-04-06T18:03:54.540Z,2.80
2023-04-06T18:06:57.921Z,2.33
2023-04-06T18:10:01.581Z,2.47
2023-04-06T18:13:04.843Z,2.67
2023-04-06T18:16:09.580Z,2.77
2023-04-06T18:19:16.101Z,2.67
2023-04-06T18:22:19.761Z,3.10
2023-04-06T18:25:25.439Z,2.70
2023-04-06T18:28:28.629Z,2.93
2023-04-06T18:31:33.172Z,2.77
2023-04-06T18:34:36.466Z,3.60
2023-04-06T18:37:39.684Z,3.37
2023-04-06T18:40:43.166Z,3.13
2023-04-06T18:43:46.448Z,3.33
2023-04-06T18:46:54.962Z,3.40
2023-04-06T18:49:58.859Z,3.20
2023-04-06T18:53:02.066Z,2.90
2023-04-06T18:56:13.962Z,3.17
2023-04-06T18:59:17.899Z,3.27
2023-04-06T19:02:23.002Z,2.93
2023-04-06T19:05:26.129Z,3.17
2023-04-06T19:08:29.493Z,3.13
2023-04-06T19:11:33.400Z,3.40
2023-04-06T19:14:36.735Z,3.10
2023-04-06T19:17:41.972Z,3.83
2023-04-06T19:20:45.132Z,3.23
2023-04-06T19:23:50.621Z,3.70
2023-04-06T19:26:53.729Z,3.60
2023-04-06T19:29:56.976Z,3.10
2023-04-06T19:33:01.526Z,4.03
2023-04-06T19:36:05.613Z,4.30
2023-04-06T19:39:08.745Z,4.00
2023-04-06T19:42:12.528Z,3.50
2023-04-06T19:45:15.994Z,4.37
2023-04-06T19:48:20.761Z,4.17
2023-04-06T19:51:23.939Z,3.60
2023-04-06T19:54:27.316Z,3.60
2023-04-06T19:57:30.867Z,3.77
2023-04-06T20:00:34.300Z,4.00
2023-04-06T20:03:38.985Z,3.60
2023-04-06T20:06:42.215Z,4.20
2023-04-06T20:09:45.351Z,4.03
2023-04-06T20:12:48.796Z,4.63
2023-04-06T20:15:51.891Z,4.20
2023-04-06T20:18:56.395Z,4.80
2023-04-06T20:22:03.255Z,4.07
2023-04-06T20:25:07.445Z,4.00
2023-04-06T20:28:10.728Z,4.20
2023-04-06T20:31:13.842Z,4.13
2023-04-06T20:34:18.398Z,4.10
2023-04-06T20:37:21.580Z,4.23
2023-04-06T20:40:24.670Z,4.57
2023-04-06T20:43:29.215Z,4.43
2023-04-06T20:46:32.452Z,4.30
2023-04-06T20:49:37.015Z,5.03
2023-04-06T20:52:40.056Z,4.93
2023-04-06T20:55:43.255Z,4.77
2023-04-06T20:58:46.373Z,4.97
2023-04-06T21:01:49.522Z,6.37
2023-04-06T21:04:54.081Z,5.97
2023-04-06T21:07:57.262Z,5.40
2023-04-06T21:11:00.560Z,5.20
2023-04-06T21:14:03.664Z,4.77
2023-04-06T21:17:06.973Z,4.70
2023-04-06T21:20:12.432Z,4.63
2023-04-06T21:23:16.225Z,4.83
2023-04-06T21:26:19.310Z,4.80
2023-04-06T21:29:22.410Z,5.30
2023-04-06T21:32:25.530Z,5.20
2023-04-06T21:35:30.004Z,5.77
2023-04-06T21:38:33.057Z,5.17
2023-04-06T21:41:36.379Z,5.67
2023-04-06T21:44:39.508Z,5.47
2023-04-06T21:47:42.686Z,5.13
2023-04-06T21:50:47.335Z,6.00
2023-04-06T21:53:50.886Z,6.13
2023-04-06T21:56:53.953Z,5.13
2023-04-06T21:59:57.015Z,5.87
2023-04-06T22:03:00.256Z,6.00
2023-04-06T22:06:06.159Z,5.57
2023-04-06T22:09:09.762Z,5.43
2023-04-06T22:12:13.554Z,4.93
2023-04-06T22:15:17.537Z,6.63
2023-04-06T22:18:20.837Z,5.30
2023-04-06T22:21:26.609Z,4.83
2023-04-06T22:24:29.724Z,4.60
2023-04-06T22:27:32.802Z,4.53
2023-04-06T22:30:36.074Z,5.87
2023-04-06T22:33:39.170Z,5.77
2023-04-06T22:36:43.734Z,4.97
2023-04-06T22:39:46.868Z,6.50
2023-04-06T22:42:50.013Z,5.50
2023-04-06T22:45:53.211Z,4.60
2023-04-06T22:48:56.333Z,4.40
2023-04-06T22:52:00.904Z,4.83
2023-04-06T22:55:04.099Z,5.20
2023-04-06T22:58:07.177Z,5.10
2023-04-06T23:01:10.340Z,5.40
2023-04-06T23:04:13.446Z,5.87
2023-04-06T23:07:17.946Z,5.40
2023-04-06T23:10:21.204Z,5.27
2023-04-06T23:13:24.339Z,5.03
2023-04-06T23:16:27.590Z,4.30
2023-04-06T23:19:30.870Z,5.03
2023-04-06T23:22:35.482Z,4.90
2023-04-06T23:25:38.582Z,4.87
2023-04-06T23:28:41.851Z,4.80
2023-04-06T23:31:45.003Z,4.90
2023-04-06T23:34:48.144Z,5.07
2023-04-06T23:37:52.682Z,5.40
2023-04-06T23:40:56.037Z,5.50
2023-04-06T23:43:59.423Z,6.80
2023-04-06T23:47:02.678Z,4.90
2023-04-06T23:50:06.383Z,5.13
2023-04-06T23:53:10.978Z,6.33
2023-04-06T23:56:14.097Z,6.47
2023-04-06T23:59:17.229Z,5.40
